Val Marie, Canada
Current Conditions -  °F | °C
As of 5:00 PM on Thursday 27 Nov 2014 (Local Time) from CYYN Reporting Station
Overcast Overcast  
Wind Chill:   Ceiling: 900
Heat Index: 19°   Visibility: 9mi
Dew Point: 18°   Wind: 20mph
Humidity: 93%   Direction: 110°ESE
Pressure: 29.76"   Gusts: 25mph
Location:  49.23°N, 107.73°W
Report Text: CYYN 272300Z AUTO 11017G22KT 9SM OVC009 M07/M08 A2976 RMK SLP120
Loading
Personal Weather Stations






























Interactive Weather Map New forecast layout! Learn more

10-Day Weather Forecast

Advertisements
Track Severe Weather on mobile